Squamish Triathlon

Sunday July 9, 2006

Results by RACE HEADQUARTERS - Darcy Locke

Final Overall Results

 FINAL Place     Place/TOTAL    FINAL  BIB  NAME of               SWIM 1.5Km BIKE 40 Km  Mi. End of BIKE  RUN  10 Km  PACE
 PLACE in SEX    in DIVISION    TIME   NO. COMPETITOR             Rank Split Rank Split /Hr. Place  TIME  Rank Split /Mile CITY

    1   1/188 M  1/12 M2024  1:56:37  280 Andrew Russell            3 20:15    3 1:00:12 24.8    1 1:20:27    1 36:11  5:50 Revelstoke,BC   
    2   2/188 M  2/12 M2024  1:59:42  145 Benjamin Hoffman          6 22:16    2   59:37 25.0    2 1:21:53    3 37:49  6:06 Missoula,MT     
    3   3/188 M  3/12 M2024  2:02:27   59 Travis Chater             2 20:09    7 1:03:49 23.4    4 1:23:58    4 38:30  6:12 Victoria,BC     
    4   4/188 M  1/20 M2529  2:02:52  274 Marcello Rosadini         1 20:07    6 1:03:03 23.7    3 1:23:10    9 39:43  6:24 Mexico,         
    5   5/188 M  4/12 M2024  2:04:54   26 Elliot Bassett           17 24:03    5 1:01:52 24.1    5 1:25:54    6 39:00  6:17 Missoula,MT     
    6   6/188 M  1/42 M3539  2:08:09  142 David Higgins             4 22:04   22 1:06:33 22.4    8 1:28:37    8 39:32  6:22 Whistler,BC     
    7   7/188 M  1/20 M4044  2:08:55    3 Gord Addison             25 24:37    8 1:03:50 23.4    6 1:28:26   11 40:29  6:31 Garibaldi Highla,
    8   8/188 M  1/30 M3034  2:09:28  226 James Muter               9 22:35   17 1:05:58 22.6    7 1:28:32   12 40:56  6:36 Surrey,BC       
    9   9/188 M  5/12 M2024  2:10:05  229 Patrick Nesbitt          80 27:18    9 1:03:58 23.3   16 1:31:15    5 38:50  6:15 Powell River,BC 
   10  10/188 M  6/12 M2024  2:10:32  184 Marc-Jason Locquiao      61 26:18   13 1:04:45 23.0   15 1:31:02    7 39:30  6:22 Delta,BC        
   11  11/188 M  2/20 M2529  2:11:30  215 Craig McMillan           50 25:50   37 1:09:25 21.5   34 1:35:14    2 36:17  5:51 Vancouver,BC    
   12  12/188 M  2/42 M3539  2:11:35  161 Michael Jones            55 26:05   12 1:04:34 23.1   14 1:30:39   13 40:56  6:36 Vancouver,BC    
   13  13/188 M  2/20 M4044  2:11:51  288 Jean-Yves Sauriol         5 22:06   25 1:07:38 22.1   11 1:29:44   18 42:07  6:47 Vancouver,BC    
   14  14/188 M  3/20 M4044  2:12:38  285 Bert Sandie              70 26:37   19 1:06:04 22.6   18 1:32:41   10 39:57  6:26 Burnaby,BC      
   15  15/188 M  1/32 M4549  2:13:15  334 Paul Suter               21 24:23   15 1:05:22 22.8   12 1:29:45   29 43:31  7:01 Whistler,BC     
   16   1/145 F  1/10 F2024  2:13:16   20 Sarah Baker               7 22:25   21 1:06:29 22.4    9 1:28:53   35 44:24  7:09 Victoria,BC     
   17  16/188 M  2/30 M3034  2:14:39  210 Matt McDowell            13 23:35   23 1:07:01 22.3   13 1:30:36   32 44:04  7:06 Powell River,BC 
   18  17/188 M  2/32 M4549  2:14:53   79 Bob Deeks                95 27:59   10 1:04:24 23.2   17 1:32:23   21 42:30  6:51 Whistler,BC     
   19  18/188 M  7/12 M2024  2:15:48  120 Doug Giles              113 28:55   16 1:05:45 22.7   29 1:34:40   14 41:08  6:38 North Vancouver,
   20  19/188 M  3/42 M3539  2:16:31  375 Anthony Yue              79 27:12   20 1:06:23 22.5   24 1:33:34   22 42:57  6:55 Victoria,BC     
   21  20/188 M  3/32 M4549  2:16:46   22 David Barnum             18 24:11   35 1:09:14 21.5   23 1:33:25   27 43:21  6:59 Roberts Creek,BC
   22  21/188 M  4/20 M4044  2:17:42  259 Rich Rawling             40 25:29   34 1:08:56 21.6   28 1:34:25   26 43:18  6:58 Squamish,BC     
   23  22/188 M  4/32 M4549  2:17:56  248 Ken Pickthall            56 26:08   38 1:09:35 21.4   37 1:35:43   19 42:13  6:48 Burnaby,BC      
   24  23/188 M  4/42 M3539  2:18:32  209 Greg McDonnell          140 30:08   11 1:04:32 23.1   30 1:34:40   31 43:52  7:04 Whistler,BC     
   25  24/188 M  1/5  M6064  2:18:37  286 Greg Sandkuhl            22 24:24   32 1:08:26 21.8   20 1:32:50   49 45:47  7:23 Whistler,BC     
   26  25/188 M  5/42 M3539  2:18:48   87 Peter Drysdale           65 26:25   26 1:07:53 22.0   27 1:34:17   36 44:31  7:10 Squamish,BC     
   27   2/145 F  1/25 F2529  2:19:41  315 Emma Smith               75 27:07   48 1:10:46 21.1   52 1:37:52   17 41:49  6:44 Whistler,BC     
   28  26/188 M  5/32 M4549  2:19:50  346 Rick Tkach               32 24:51   27 1:07:53 22.0   19 1:32:43   67 47:07  7:35 Burnaby,BC      
   29  27/188 M  6/42 M3539  2:20:07  284 Derek Sakamoto           85 27:38   24 1:07:17 22.2   32 1:34:55   44 45:13  7:17 Vancouver,BC    
   30   3/145 F  1/33 F3034  2:20:10  377 Jessica Depew            23 24:27   33 1:08:41 21.7   21 1:33:07   66 47:03  7:35 Vancouver,BC    
   31  28/188 M  1/3  M1519  2:20:24   44 Ryan Bowley              43 25:30   47 1:10:39 21.1   40 1:36:09   34 44:16  7:08 Abbotsford,BC   
   32  29/188 M  7/42 M3539  2:20:34  203 Mike McArthur            84 27:28   31 1:08:26 21.8   38 1:35:54   40 44:41  7:12 Vancouver,BC    
   33  30/188 M  3/30 M3034  2:20:38  154 Ryan Iverach             33 25:11   41 1:10:13 21.2   35 1:35:24   45 45:14  7:17 Vancouver,BC    
   34  31/188 M  8/42 M3539  2:20:50  352 Sandy Treagus            74 27:05   36 1:09:15 21.5   41 1:36:19   37 44:31  7:10 West Vancouver,B
   35   4/145 F  2/25 F2529  2:20:59  146 Teresa Hoivik            38 25:19   63 1:12:25 20.6   50 1:37:44   25 43:16  6:58 Langley,BC      
   36  32/188 M  9/42 M3539  2:21:12  199 Paul Martinson           31 24:51   42 1:10:15 21.2   33 1:35:05   53 46:08  7:26 Vancouver,BC    
   37  33/188 M  3/20 M2529  2:21:15  361 Kyle Wheatley            15 23:41   51 1:11:09 21.0   31 1:34:49   58 46:26  7:29 North Vancouver,
   38  34/188 M  4/30 M3034  2:21:58  273 Nils Robinson             8 22:29   52 1:11:13 20.9   25 1:33:42   87 48:17  7:47 Whistler,BC     
   39   5/145 F  2/33 F3034  2:22:17  213 Kathy McKay              58 26:12   65 1:12:38 20.5   56 1:38:50   28 43:28  7:00 North Vancouver,
   40  35/188 M  2/3  M1519  2:22:23    4 Vincente Alonso          39 25:21   83 1:14:03 20.1   58 1:39:23   23 43:00  6:56 Mexico,         
   41  36/188 M 10/42 M3539  2:22:39   94 Ben Eksteen             137 30:02   53 1:11:14 20.9   67 1:41:15   15 41:24  6:40 Garibaldi Highla,
   42  37/188 M  4/20 M2529  2:23:00  169 Sanghyung Kim           252 35:22    4 1:00:58 24.5   42 1:36:20   61 46:40  7:31 Vancouver,BC    
   43  38/188 M  5/30 M3034  2:23:26  301 David Setton             81 27:21   57 1:11:31 20.9   57 1:38:52   39 44:35  7:11 Vancouver,BC    
   44  39/188 M  8/12 M2024  2:23:32   15 Jordan Back             103 28:32   77 1:13:32 20.3   74 1:42:04   16 41:29  6:41 North Vancouver,
   45  40/188 M  6/30 M3034  2:23:33  311 Daniel Sivertson         49 25:46   40 1:09:47 21.4   36 1:35:32   82 48:02  7:44 Vancouver,BC    
   46  41/188 M  5/20 M2529  2:23:59  373 Dan Wong                 44 25:36   45 1:10:33 21.1   39 1:36:09   78 47:51  7:42 Surrey,BC       
   47   6/145 F  2/10 F2024  2:24:32  224 Tara Mowat               54 25:59   29 1:08:10 21.9   26 1:34:08  109 50:25  8:07 Squamish,BC     
   48  42/188 M  6/32 M4549  2:24:35  254 Derek Prout              20 24:22   71 1:13:01 20.4   46 1:37:23   69 47:12  7:36 Victoria,BC     
   49  43/188 M 11/42 M3539  2:24:54   33 Jason Bishop             88 27:47   44 1:10:25 21.2   53 1:38:12   62 46:43  7:32 New Westminster,
   50   7/145 F  1/11 F4549  2:25:02  345 Dawn Titus               37 25:18   28 1:08:07 21.9   22 1:33:25  129 51:38  8:19 Whistler,BC     
   51  44/188 M  6/20 M2529  2:25:42  262 Jeff Remple              36 25:17   55 1:11:21 20.9   43 1:36:38   99 49:05  7:54 Burnaby,BC      
   52  45/188 M 12/42 M3539  2:25:49  314 Roger Slater             16 23:57   98 1:15:29 19.8   59 1:39:26   55 46:23  7:28 New Zealand,    
   53  46/188 M  7/20 M2529  2:26:02   14 Richard Avedon-Savage    86 27:41   84 1:14:10 20.1   72 1:41:51   33 44:11  7:07 Nanaimo,BC      
   54   8/145 F  3/33 F3034  2:26:13  119 Jennifer Gilbert         19 24:21   75 1:13:27 20.3   51 1:37:47   89 48:26  7:48 Courtenay,BC    
   55  47/188 M  8/20 M2529  2:26:15   42 Emlyn Bolton             63 26:23   50 1:10:57 21.0   44 1:37:20   95 48:55  7:53 Vancouver,BC    
   56  48/188 M  5/20 M4044  2:26:21  251 Dave Prentice            72 26:49   79 1:13:39 20.3   61 1:40:28   51 45:54  7:24 Logan Lake,BC   
   57  49/188 M  7/32 M4549  2:27:07  164 Paul Kane               116 29:03   69 1:12:54 20.5   73 1:41:57   43 45:11  7:17 Victoria,BC     
   58  50/188 M  1/15 M5054  2:27:09  335 Brian Svelnis            62 26:23   73 1:13:11 20.4   60 1:39:33   76 47:36  7:40 Vancouver,BC    
   59  51/188 M  8/32 M4549  2:27:15  187 Dean Luff               169 31:13   43 1:10:17 21.2   69 1:41:29   48 45:46  7:22 North Vancouver,
   60  52/188 M  9/12 M2024  2:27:33  191 Cameron MacKay          122 29:24   56 1:11:22 20.9   63 1:40:45   63 46:48  7:32 North Vancouver,
   61   9/145 F  3/25 F2529  2:28:02  192 Sara MacKenzie           45 25:37   72 1:13:02 20.4   55 1:38:38  101 49:25  7:58 Victoria,BC     
   62  53/188 M 13/42 M3539  2:28:25  157 Woochan Jeong           220 33:30   14 1:05:01 22.9   54 1:38:30  107 49:55  8:02 Whistler,BC     
   63  54/188 M  9/32 M4549  2:28:51  207 John McCulloch           35 25:14   61 1:12:08 20.7   45 1:37:22  125 51:30  8:18 Vancouver,BC    
   64  55/188 M 14/42 M3539  2:29:18  200 Dana Maslovat            53 25:57  115 1:17:06 19.3   81 1:43:03   54 46:15  7:27 Delta,BC        
   65  56/188 M 15/42 M3539  2:29:24  103 Robert Feustel          202 32:56   46 1:10:36 21.1   87 1:43:32   50 45:53  7:23 North Vancouver,
   66  57/188 M 10/32 M4549  2:29:44   81 Peter Denny              96 28:03   80 1:13:41 20.2   71 1:41:44   81 48:01  7:44 North Vancouver,
   67  58/188 M 16/42 M3539  2:29:52  198 Gavin Marshall          153 30:40   87 1:14:23 20.1   95 1:45:03   41 44:50  7:13 North Vancouver,
   68  10/145 F  4/25 F2529  2:30:23    5 Jen Andrews              10 22:39   93 1:14:56 19.9   48 1:37:35  139 52:49  8:30 Vancouver,BC    
   69  59/188 M 17/42 M3539  2:30:24  309 Jason Simpson           162 30:55   49 1:10:47 21.1   70 1:41:42   92 48:43  7:51 Pemberton,BC    
   70  60/188 M  1/6  M5559  2:30:42  365 Ray Wilburn             106 28:36   94 1:14:58 19.9   88 1:43:34   68 47:08  7:36 Squamish,BC     
   71  61/188 M 18/42 M3539  2:30:50  117 Sean George             114 28:56   74 1:13:16 20.4   76 1:42:11   91 48:39  7:50 Vancouver,BC    
   72  62/188 M 19/42 M3539  2:31:11  178 Cameron Lebans          240 34:36   60 1:12:04 20.7  108 1:46:39   38 44:33  7:11 Vancouver,BC    
   73  63/188 M  7/30 M3034  2:31:33  143 Matthew Hoag             34 25:14  127 1:18:27 19.0   89 1:43:41   79 47:53  7:43 Vancouver,BC    
   74  64/188 M 20/42 M3539  2:31:36   54 Rob Campbell            107 28:48   85 1:14:21 20.1   82 1:43:09   90 48:28  7:48 Vancouver,BC    
   75  65/188 M  9/20 M2529  2:31:43  329 Travis Stevenson        193 32:26   30 1:08:15 21.9   62 1:40:40  115 51:03  8:13 North Vancouver,
   76  66/188 M  2/6  M5559  2:31:49  107 Mark Foreman             92 27:54  102 1:15:47 19.7   90 1:43:41   84 48:08  7:45 Victoria,BC     
   77  67/188 M  8/30 M3034  2:31:51  241 Guy Patterson           190 32:15  120 1:17:18 19.3  137 1:49:32   20 42:19  6:49 Whistler,BC     
   78  68/188 M  2/5  M6064  2:31:54  349 Stephen Torgesen        126 29:38   78 1:13:33 20.3   83 1:43:11   93 48:44  7:51 Sequim,WA       
   79  69/188 M 21/42 M3539  2:32:06  186 Trevor Lowe             175 31:24   96 1:15:24 19.8  111 1:46:47   46 45:20  7:18 Powell River,BC 
   80  70/188 M  6/20 M4044  2:32:10  204 Darren McClelland        29 24:44  108 1:16:15 19.6   65 1:40:59  118 51:11  8:15 North Vancouver,
   81  11/145 F  2/11 F4549  2:32:24  163 May Jung                167 31:06   81 1:13:53 20.2   94 1:44:58   72 47:27  7:39 North Vancouver,
   82  71/188 M  9/30 M3034  2:33:19    6 Trent Argent             12 23:20   88 1:14:24 20.0   49 1:37:43  181 55:36  8:57 Whistler,BC     
   83  72/188 M 10/30 M3034  2:33:21   43 Laine Bosma             166 31:05   86 1:14:23 20.1   98 1:45:28   80 47:53  7:43 Richmond,BC     
   84  73/188 M 11/30 M3034  2:33:21  197 James Markus            105 28:35  124 1:17:46 19.2  104 1:46:20   65 47:02  7:35 Surrey,BC       
   85  74/188 M 10/20 M2529  2:33:55  302 Patrick Sheeley         112 28:54   82 1:13:57 20.2   80 1:42:51  116 51:05  8:14 Vancouver,BC    
   86  75/188 M  2/15 M5054  2:34:05  268 Gord Robertson           30 24:47  105 1:16:05 19.6   64 1:40:51  145 53:14  8:34 Surrey,BC       
   87  76/188 M 22/42 M3539  2:34:05  174 Kevin Laface            244 34:47   70 1:12:55 20.5  115 1:47:42   56 46:24  7:28 North Vancouver,
   88  77/188 M 11/32 M4549  2:34:28  330 Dan Stewart             150 30:30   66 1:12:42 20.5   84 1:43:12  119 51:17  8:16 North Vancouver,
   89  12/145 F  4/33 F3034  2:34:29  376 Kristi Zychowka         156 30:44  134 1:18:47 18.9  135 1:49:31   42 44:58  7:15 Vancouver,BC    
   90  13/145 F  5/33 F3034  2:34:31  109 Joanne Fox              131 29:45  103 1:15:51 19.7  100 1:45:36   97 48:56  7:53 Richmond,BC     
   91  78/188 M 10/12 M2024  2:34:55  265 Alex Ritchie            272 36:41   62 1:12:12 20.7  130 1:48:53   52 46:02  7:25 Squamish,BC     
   92  79/188 M 23/42 M3539  2:35:02  158 Kevin Johnson           142 30:12  104 1:16:04 19.6  103 1:46:16   94 48:47  7:51 Burnaby,BC      
   93  80/188 M 12/32 M4549  2:35:14   67 Neil Corbett             87 27:45  123 1:17:32 19.2   97 1:45:16  108 49:59  8:03 Delta,BC        
   94  81/188 M 13/32 M4549  2:35:29  371 Tom Wojcik              213 33:13   92 1:14:44 20.0  118 1:47:56   75 47:33  7:40 Vancouver,BC    
   95  14/145 F  5/25 F2529  2:35:37  368 Karen Willis             52 25:57  186 1:23:02 18.0  131 1:48:58   60 46:39  7:31 Squamish,BC     
   96  82/188 M 12/30 M3034  2:35:39  291 Kai-Uwe Schmidt          47 25:42  128 1:18:27 19.0   91 1:44:08  126 51:31  8:18 Vancouver,BC    
   97  15/145 F  1/26 F3539  2:35:42  320 Lara Spence              90 27:49  111 1:16:59 19.4   93 1:44:48  113 50:55  8:12 Vancouver,BC    
   98  16/145 F  3/10 F2024  2:35:54   92 Madalene Earp           108 28:50  100 1:15:36 19.7   92 1:44:26  124 51:28  8:17 Vancouver,BC    
   99  83/188 M  3/15 M5054  2:36:12  156 Diego Jaramillo         117 29:05  145 1:19:30 18.8  128 1:48:35   77 47:37  7:40 North Vancouver,
  100  84/188 M 24/42 M3539  2:36:22  353 Neil Vaughan            183 31:58   91 1:14:40 20.0  107 1:46:37  104 49:45  8:01 Pitt Meadows,BC 
  101  85/188 M  4/15 M5054  2:36:42   36 John Blok               135 29:57   54 1:11:16 20.9   66 1:41:13  175 55:30  8:56 Whistler,BC     
  102  86/188 M 25/42 M3539  2:37:07  144 Chris Hodkinson          93 27:55   90 1:14:38 20.0   78 1:42:33  166 54:35  8:47 Whistler,BC     
  103  87/188 M 11/20 M2529  2:37:27  342 Tavis Thomson           216 33:17   59 1:11:51 20.8   96 1:45:08  134 52:20  8:26 Squamish,BC     
  104  17/145 F  1/14 F5054  2:37:32   49 Aenea Cameron           227 33:48  116 1:17:11 19.3  146 1:50:59   59 46:34  7:30 Squamish,BC     
  105  88/188 M  3/6  M5559  2:37:32   23 Tom Barratt              27 24:40  109 1:16:47 19.4   68 1:41:27  189 56:06  9:02 Whistler,BC     
  106  18/145 F  2/26 F3539  2:37:43  378 Liana Sipelis           225 33:43   39 1:09:45 21.4   86 1:43:28  160 54:16  8:44 Vancouver,BC    
  107  19/145 F  3/26 F3539  2:37:57   11 Nancy Austin             66 26:25  140 1:19:11 18.8   99 1:45:36  135 52:21  8:26 Vancouver,BC    
  108  89/188 M 12/20 M2529  2:37:57  260 Colin Reddin            263 36:09   76 1:13:32 20.3  138 1:49:41   88 48:17  7:47 North Vancouver,
  109  20/145 F  6/25 F2529  2:37:58  235 Catherine O'Neill        71 26:48  216 1:25:33 17.4  162 1:52:20   47 45:38  7:21 Whistler,BC     
  110  21/145 F  4/26 F3539  2:38:01   99 Audrey Erlandson        123 29:25   67 1:12:43 20.5   75 1:42:08  186 55:54  9:00 Comox,BC        
  111  22/145 F  5/26 F3539  2:38:07  105 Lisa Floes              180 31:49  121 1:17:23 19.3  133 1:49:12   96 48:55  7:53 Vancouver,BC    
  112  90/188 M 11/12 M2024  2:38:11  173 Alan Labrum              59 26:15  113 1:17:02 19.4   85 1:43:17  169 54:54  8:51 Surrey,BC       
  113  91/188 M 14/32 M4549  2:38:16  279 David Rushbrook          76 27:09   99 1:15:34 19.7   79 1:42:42  180 55:34  8:57 Whistler,BC     
  114  23/145 F  1/20 F4044  2:38:48  240 Cathy Paterson          110 28:54  141 1:19:12 18.8  121 1:48:05  111 50:43  8:10 North Vancouver,
  115  92/188 M 12/12 M2024  2:38:52  114 Marco Gallo             115 29:02  142 1:19:14 18.8  124 1:48:16  110 50:36  8:09 Vancouver,BC    
  116  93/188 M  3/3  M1519  2:39:15  113 Terry Fulton            133 29:49  172 1:21:57 18.2  154 1:51:46   74 47:30  7:39 Garibaldi Highla,
  117  24/145 F  6/26 F3539  2:39:20  298 Lara Scott              191 32:15  196 1:24:01 17.8  199 1:56:16   24 43:05  6:56 Langley,BC      
  118  94/188 M 26/42 M3539  2:39:27  336 Kory Swanson             67 26:29  166 1:21:24 18.3  117 1:47:52  128 51:36  8:19 Brackendale,BC  
  119  25/145 F  7/25 F2529  2:39:30   95 Jane Emerick            157 30:46   97 1:15:27 19.8  102 1:46:13  147 53:18  8:35 Squamish,BC     
  120  26/145 F  6/33 F3034  2:39:37  167 Alyssa Kenyon            14 23:38  133 1:18:45 18.9   77 1:42:23  207 57:14  9:13 Vancouver,BC    
  121  95/188 M  7/20 M4044  2:39:38  189 John MacDonald          177 31:32  126 1:18:21 19.0  139 1:49:52  106 49:46  8:01 Maple Ridge,BC  
  122  27/145 F  7/33 F3034  2:39:38  220 Natalie Morel           138 30:05  117 1:17:11 19.3  113 1:47:16  136 52:23  8:26 Pemberton,BC    
  123  28/145 F  8/25 F2529  2:39:48    7 Jennifer Armatage       173 31:20   95 1:15:01 19.9  105 1:46:21  151 53:27  8:36 Squamish,BC     
  124  96/188 M 13/30 M3034  2:39:52   84 Craig Dickson           200 32:48  137 1:18:53 18.9  153 1:51:40   85 48:12  7:46 Burnaby,BC      
  125  29/145 F  7/26 F3539  2:41:01  183 Rosanna Linn             77 27:09  143 1:19:15 18.8  106 1:46:24  168 54:37  8:48 La Jolla,CA     
  126  30/145 F  3/11 F4549  2:41:03   34 Karen Blaylock          207 33:04  114 1:17:05 19.4  142 1:50:08  114 50:55  8:12 Whistler,BC     
  127  97/188 M 15/32 M4549  2:41:12  350 Cam Towill               11 22:54  208 1:25:12 17.5  122 1:48:06  141 53:07  8:33 Vancouver,BC    
  128  98/188 M 13/20 M2529  2:41:17   72 Rob Cullen              130 29:43  112 1:16:59 19.4  110 1:46:42  167 54:36  8:48 Burnaby,BC      
  129  99/188 M 27/42 M3539  2:41:22  271 Steve Robertson         144 30:18  191 1:23:38 17.8  175 1:53:56   73 47:27  7:39 Langley,BC      
  130 100/188 M  3/5  M6064  2:41:43  239 Brian Parkinson         101 28:27  150 1:19:58 18.7  125 1:48:24  148 53:20  8:35 Langley,BC      
  131 101/188 M 16/32 M4549  2:41:51  312 Martin Skertchly        262 36:00  106 1:16:05 19.6  157 1:52:05  105 49:46  8:01 Delta,BC        
  132  31/145 F  9/25 F2529  2:41:53   78 Kathryn Dawlings        241 34:36  159 1:20:53 18.4  188 1:55:28   57 46:26  7:29 Vancouver,BC    
  133  32/145 F  8/33 F3034  2:42:00  233 Katherine Norton         46 25:39  173 1:22:07 18.2  116 1:47:45  159 54:16  8:44 Vancouver,BC    
  134  33/145 F  9/33 F3034  2:42:04  281 Carolyn Russell         233 33:59  164 1:21:16 18.4  186 1:55:15   64 46:50  7:33 Vancouver,BC    
  135  34/145 F  4/10 F2024  2:42:27    2 Lauren Acres            134 29:53  209 1:25:13 17.5  183 1:55:06   70 47:22  7:38 Vancouver,BC    
  136 102/188 M  5/15 M5054  2:42:28  127 Jannie Grobler          231 33:54  146 1:19:31 18.8  168 1:53:25   98 49:03  7:54 Whistler,BC     
  137 103/188 M 28/42 M3539  2:42:39  121 Zak Gilson              174 31:21  138 1:19:02 18.9  143 1:50:22  133 52:18  8:25 Brackendale,BC  
  138 104/188 M  8/20 M4044  2:42:51  340 Ian Tate                160 30:52  151 1:20:10 18.6  147 1:51:02  130 51:50  8:21 Langley,BC      
  139  35/145 F 10/33 F3034  2:43:12  125 Alison Grigg            251 35:13  130 1:18:40 19.0  174 1:53:52  100 49:20  7:57 Vancouver,BC    
  140  36/145 F  4/11 F4549  2:43:40  221 Lori Morgan             152 30:40  131 1:18:43 18.9  134 1:49:22  161 54:18  8:45 Victoria,BC     
  141  37/145 F  2/20 F4044  2:43:40   50 Heather Cameron         143 30:15  136 1:18:52 18.9  132 1:49:07  164 54:34  8:47 Victoria,BC     
  142 105/188 M 17/32 M4549  2:43:44   56 Michael Carson          127 29:38  152 1:20:16 18.6  140 1:49:54  155 53:51  8:40 Vancouver,BC    
  143 106/188 M 14/30 M3034  2:43:51   58 Colin Chamut            165 31:05  202 1:24:33 17.6  190 1:55:37   86 48:14  7:46 Vancouver,BC    
  144  38/145 F  8/26 F3539  2:44:06  149 Carolyn Hubbard          82 27:24  147 1:19:36 18.7  112 1:47:00  206 57:07  9:12 North Vancouver,
  145 107/188 M 14/20 M2529  2:44:37  275 Brian Roth              261 35:58  107 1:16:09 19.6  158 1:52:07  137 52:31  8:28 Vancouver,BC    
  146  39/145 F 11/33 F3034  2:44:40   64 Christine Cogger        208 33:05   89 1:14:30 20.0  114 1:47:35  204 57:06  9:12 Whistler,BC     
  147  40/145 F 12/33 F3034  2:44:43  327 Amanda Staton           100 28:17  154 1:20:18 18.6  127 1:48:34  190 56:09  9:03 White Rock,BC   
  148 108/188 M  9/20 M4044  2:44:55   74 Mark Dalsanto           257 35:36  118 1:17:14 19.3  165 1:52:50  132 52:06  8:23 North Vancouver,
  149 109/188 M 29/42 M3539  2:44:58  234 Steve Olmstead          161 30:53  179 1:22:40 18.0  170 1:53:32  122 51:27  8:17 North Vancouver,
  150 110/188 M 15/30 M3034  2:45:15   68 Ian Cruickshank         248 35:09  110 1:16:50 19.4  155 1:51:58  146 53:17  8:35 Squamish,BC     
  151  41/145 F  2/14 F5054  2:45:30  303 Patricia Shelby         253 35:29   64 1:12:28 20.6  119 1:47:57  208 57:33  9:16 Surrey,BC       
  152 111/188 M 15/20 M2529  2:45:33  219 Phil Miller             264 36:12  149 1:19:51 18.7  195 1:56:03  102 49:30  7:58 Vancouver,BC    
  153  42/145 F 10/25 F2529  2:45:41  166 Sarah Kent               98 28:14  222 1:26:22 17.3  179 1:54:35  117 51:07  8:14 Fort McMurray,AB
  154  43/145 F  5/10 F2024  2:45:42  152 Rachel Ilg              199 32:41  169 1:21:34 18.3  176 1:54:15  123 51:27  8:17 Vancouver,BC    
  155  44/145 F  9/26 F3539  2:45:54  112 Jackie Fulton            64 26:23  177 1:22:28 18.1  129 1:48:50  203 57:05  9:12 Whistler,BC     
  156 112/188 M  6/15 M5054  2:46:05  165 John Kearns             185 31:59  188 1:23:13 17.9  185 1:55:12  112 50:54  8:12 Vancouver,BC    
  157 113/188 M 18/32 M4549  2:46:32   89 Warren Dueck            155 30:44  125 1:17:48 19.2  126 1:48:31  211 58:01  9:21 Richmond,BC     
  158 114/188 M 16/20 M2529  2:47:02  159 Steve Johnson           254 35:29  101 1:15:46 19.7  149 1:51:15  182 55:47  8:59 Whistler,BC     
  159 115/188 M 10/20 M4044  2:47:26   18 Michael Bajada          118 29:06  139 1:19:10 18.8  123 1:48:15  228 59:12  9:32 Vancouver,BC    
  160  45/145 F 10/26 F3539  2:47:29  266 Amanda Roberts          145 30:20  162 1:21:10 18.4  151 1:51:30  187 55:59  9:01 Maple Ridge,BC  
  161 116/188 M  4/6  M5559  2:47:32   70 Richard Cudmore         217 33:19  132 1:18:44 18.9  156 1:52:02  176 55:30  8:56 Squamish,BC     
  162 117/188 M 30/42 M3539  2:47:37   37 Lance Blomgren           48 25:45  225 1:26:25 17.3  159 1:52:10  174 55:28  8:56 Vancouver,BC    
  163 118/188 M 31/42 M3539  2:47:39   96 Sean Ennis              128 29:38  204 1:24:50 17.6  178 1:54:28  144 53:12  8:34 North Vancouver,
  164  46/145 F  1/2  F6064  2:47:44   86 Paula Dryden             42 25:30  213 1:25:24 17.5  145 1:50:54  199 56:50  9:09 Comox,BC        
  165  47/145 F 11/25 F2529  2:47:53  162 Karmen Jongewaard        83 27:26  189 1:23:27 17.9  144 1:50:52  202 57:02  9:11 Victoria,BC     
  166  48/145 F  3/14 F5054  2:48:09   19 Brenda Baker            324 42:44  170 1:21:43 18.3  251 2:04:27   30 43:42  7:02 Whistler,BC     
  167 119/188 M 19/32 M4549  2:48:09  232 Fraser Norrie            69 26:35  200 1:24:29 17.7  148 1:51:04  205 57:06  9:12 Vancouver,BC    
  168 120/188 M  7/15 M5054  2:48:09  151 Don Hutchison           184 31:59  185 1:23:02 18.0  182 1:55:00  143 53:10  8:34 Surrey,BC       
  169 121/188 M 32/42 M3539  2:48:19  176 David Lane              109 28:52  158 1:20:40 18.5  136 1:49:31  219 58:48  9:28 Garibaldi Highla,
  170  49/145 F 13/33 F3034  2:48:28  258 Dominique Ramirez       148 30:27  175 1:22:11 18.1  163 1:52:37  183 55:51  9:00 North Vancouver,
  171  50/145 F 12/25 F2529  2:48:56  331 Rochelle Stokes         239 34:32  156 1:20:35 18.5  184 1:55:07  154 53:50  8:40 Vancouver,BC    
  172 122/188 M 11/20 M4044  2:49:03  223 Guy Morum                73 26:53  163 1:21:11 18.4  120 1:48:04  244 60:59  9:49 Squamish,BC     
  173  51/145 F  3/20 F4044  2:49:10  339 Wanda Tataryn           132 29:49  226 1:26:26 17.3  198 1:56:14  140 52:56  8:32 Powell River,BC 
  174  52/145 F  4/20 F4044  2:49:13  366 Carla Wilkie            258 35:40  176 1:22:15 18.1  216 1:57:54  120 51:19  8:16 Garibaldi Highla,
  175 123/188 M 20/32 M4549  2:49:14  297 Randy Scobie            139 30:08  217 1:25:43 17.4  191 1:55:51  150 53:24  8:36 Surrey,BC       
  176 124/188 M 21/32 M4549  2:49:28  205 John McCoach            159 30:51  182 1:22:46 18.0  171 1:53:36  184 55:52  9:00 North Vancouver,
  177 125/188 M 12/20 M4044  2:49:51  308 Mike Simm               204 32:58  157 1:20:40 18.5  172 1:53:37  191 56:15  9:04 Squamish,BC     
  178  53/145 F  4/14 F5054  2:50:01  217 Barbara McPhee          209 33:06  184 1:22:58 18.0  194 1:56:03  156 53:58  8:42 Port Coquitlam,B
  179 126/188 M  4/5  M6064  2:50:03  212 Don McIntosh            168 31:06  178 1:22:36 18.1  173 1:53:42  193 56:22  9:05 Burnaby,BC      
  180  54/145 F 14/33 F3034  2:50:05  370 Shelley Wiltse          170 31:17  171 1:21:48 18.2  166 1:53:05  201 57:01  9:11 Langley,BC      
  181 127/188 M 13/20 M4044  2:50:18  324 Kevin Stadnyk           246 34:56   58 1:11:46 20.8  109 1:46:41  262 63:37 10:15 Burnaby,BC      
  182 128/188 M 22/32 M4549  2:50:33  356 Marinus Waterberg       203 32:57  190 1:23:34 17.8  203 1:56:31  158 54:03  8:42 Richmond,BC     
  183 129/188 M 14/20 M4044  2:50:40   12 Jean Michel Auzoux      179 31:43  229 1:27:38 17.0  225 1:59:20  121 51:20  8:16 Richmond,BC     
  184  55/145 F 11/26 F3539  2:50:43  138 Hiroko Hayashi          129 29:39  203 1:24:48 17.6  177 1:54:27  192 56:16  9:04 Vancouver,BC    
  185  56/145 F 15/33 F3034  2:50:51  372 Colleen Wong            210 33:07  220 1:26:10 17.3  223 1:59:17  127 51:35  8:18 Vancouver,BC    
  186  57/145 F 16/33 F3034  2:50:58  216 Sarah McMillan          236 34:10  122 1:17:28 19.3  152 1:51:37  229 59:21  9:34 Vancouver,BC    
  187 130/188 M 23/32 M4549  2:51:03  272 Tom Robertson           312 39:53  187 1:23:08 17.9  240 2:03:00   83 48:04  7:45 Surrey,BC       
  188  58/145 F 13/25 F2529  2:51:22  283 Amy Saari                99 28:16  207 1:25:10 17.5  169 1:53:26  210 57:56  9:20 Vancouver,BC    
  189 131/188 M  8/15 M5054  2:51:25   31 Glenn Benoit            192 32:20  192 1:23:42 17.8  193 1:56:02  172 55:23  8:55 Kelowna,BC      
  190 132/188 M 16/30 M3034  2:51:32  310 Ash Singhal             289 37:51  155 1:20:19 18.6  217 1:58:10  149 53:22  8:36 Vancouver,BC    
  191  59/145 F 12/26 F3539  2:51:33  182 Lisa Lindal             188 32:04  201 1:24:32 17.6  205 1:56:35  171 54:58  8:51 Vancouver,BC    
  192 133/188 M 15/20 M4044  2:51:40  202 Ron Mayne               124 29:30  180 1:22:41 18.0  160 1:52:11  230 59:30  9:35 Langley,BC      
  193 134/188 M 24/32 M4549  2:51:50  148 Tom Honey               219 33:24  144 1:19:19 18.8  164 1:52:43  225 59:08  9:31 Garibaldi Highla,
  194 135/188 M 16/20 M4044  2:52:00  237 Tom Panabaker           201 32:49  129 1:18:39 19.0  150 1:51:27  241 60:34  9:45 North Vancouver,
  195 136/188 M 17/20 M4044  2:52:54  355 James Wanless           299 38:17  205 1:25:08 17.5  246 2:03:24  103 49:30  7:58 Vancouver,BC    
  196  60/145 F 17/33 F3034  2:53:05  341 Alison Thompson         176 31:26  227 1:26:45 17.2  218 1:58:11  170 54:54  8:51 Vancouver,BC    
  197 137/188 M  5/6  M5559  2:53:07  263 David Rice              315 40:18  119 1:17:17 19.3  212 1:57:34  179 55:34  8:57 Toronto,ON      
  198  61/145 F 18/33 F3034  2:53:16   51 Andrea Camp             121 29:20  195 1:24:00 17.8  167 1:53:20  235 59:57  9:39 Vancouver,BC    
  199 138/188 M  9/15 M5054  2:53:17  196 Chris Manore             57 26:11  193 1:23:50 17.8  141 1:50:01  258 63:17 10:11 Vancouver,BC    
  200  62/145 F  5/11 F4549  2:53:24   85 Terrie Dlugon           288 37:42  165 1:21:24 18.3  222 1:59:05  162 54:19  8:45 Vancouver,BC    
  201 139/188 M 10/15 M5054  2:53:43   66 Rob Cooper              229 33:50  183 1:22:54 18.0  207 1:56:43  200 57:00  9:11 Vancouver,BC    
  202  63/145 F  6/11 F4549  2:54:28   65 Francesca Cole          245 34:52  168 1:21:29 18.3  202 1:56:21  212 58:07  9:22 Whistler,BC     
  203 140/188 M 25/32 M4549  2:55:25  177 Sean Languedoc           91 27:53  199 1:24:26 17.7  161 1:52:18  257 63:08 10:10 Garibaldi Highla,
  204  64/145 F 14/25 F2529  2:55:29   97 Lauren Enright           51 25:50  256 1:30:47 16.4  206 1:56:36  221 58:54  9:29 Vancouver,BC    
  205  65/145 F  5/20 F4044  2:55:32  180 Jennifer Leigh          171 31:17  210 1:25:16 17.5  204 1:56:33  223 58:59  9:30 Whistler,BC     
  206 141/188 M  1/3  M6569  2:55:52  193 Mick Maguire            270 36:37  161 1:21:09 18.4  214 1:57:45  213 58:08  9:22 North Vancouver,
  207  66/145 F  1/3  F5559  2:56:00  211 Jennifer McIndoe        218 33:22  198 1:24:25 17.7  215 1:57:47  214 58:14  9:23 Delta,BC        
  208 142/188 M 33/42 M3539  2:56:12  170 Steve Kirkby            276 36:47  263 1:32:01 16.2  271 2:08:47   71 47:26  7:38 North Vancouver,
  209 143/188 M 17/30 M3034  2:56:16  348 Lance Torgesen          278 36:52  153 1:20:16 18.6  208 1:57:08  226 59:08  9:31 Woodinville,WA  
  210  67/145 F 13/26 F3539  2:56:45   21 Sue Barlow              198 32:36  259 1:31:23 16.3  249 2:03:59  138 52:46  8:30 Vancouver,BC    
  211  68/145 F 19/33 F3034  2:56:52   90 Leigh Dustan            154 30:41  194 1:23:56 17.8  180 1:54:37  251 62:15 10:02 West Vancouver,B
  212 144/188 M 18/30 M3034  2:56:53  137 Dion Hawke              230 33:51  223 1:26:24 17.3  229 2:00:14  197 56:39  9:07 Vancouver,BC    
  213  69/145 F  2/3  F5559  2:57:29  364 Helle Wilburn           283 37:23  135 1:18:51 18.9  196 1:56:13  248 61:16  9:52 Squamish,BC     
  214 145/188 M 11/15 M5054  2:57:48  344 George Tiller            89 27:49  247 1:29:46 16.6  213 1:57:35  237 60:13  9:42 Delta,BC        
  215 146/188 M 34/42 M3539  2:57:49  313 Paul Skrecek            322 42:18  160 1:20:58 18.4  243 2:03:16  165 54:34  8:47 Vancouver,BC    
  216  70/145 F  5/14 F5054  2:57:53  243 Cynthia Patton          149 30:29  255 1:30:41 16.4  230 2:01:10  198 56:44  9:08 Vancouver,BC    
  217  71/145 F 20/33 F3034  2:58:13  222 Tamsyn Morote           120 29:19  250 1:29:59 16.6  224 1:59:17  222 58:57  9:30 Squamish,BC     
  218 147/188 M 19/30 M3034  2:58:19  214 Brett McLean            211 33:11  197 1:24:14 17.7  211 1:57:25  243 60:55  9:49 Vancouver,BC    
  219  72/145 F  7/11 F4549  2:58:34   77 Diane Dasler            164 31:02  234 1:28:45 16.8  227 1:59:46  220 58:49  9:28 Delta,BC        
  220 148/188 M 26/32 M4549  2:58:40   40 Oliver Boduel           286 37:37  167 1:21:28 18.3  221 1:59:04  231 59:37  9:36 Delta,BC        
  221  73/145 F  6/10 F2024  2:58:44  306 Brittany Shull          237 34:16  239 1:29:05 16.7  245 2:03:20  173 55:25  8:55 Powell River,BC 
  222  74/145 F 15/25 F2529  2:58:47  133 Haley Hardy             141 30:09  248 1:29:56 16.6  228 2:00:04  218 58:43  9:27 Vancouver,BC    
  223 149/188 M 20/30 M3034  2:59:20  102 Dave Ferguson           178 31:33  228 1:27:20 17.1  220 1:58:53  238 60:27  9:44 Vancouver,BC    
  224 150/188 M 18/20 M4044  2:59:22  201 Gord Mathews            271 36:38  148 1:19:43 18.7  201 1:56:20  256 63:02 10:09 Surrey,BC       
  225 151/188 M 19/20 M4044  2:59:45   88 Steven Drysdale         125 29:37  261 1:31:41 16.3  232 2:01:17  215 58:28  9:25 North Vancouver,
  226 152/188 M 27/32 M4549  2:59:47   10 Bob Attwell             292 38:01  206 1:25:08 17.5  241 2:03:08  196 56:39  9:07 New Westminster,
  227  75/145 F 14/26 F3539  3:00:05  247 Sandra Phillips          68 26:30  295 1:37:10 15.4  248 2:03:40  194 56:26  9:05 Powell River,BC 
  228 153/188 M 35/42 M3539  3:00:30  290 Markus Schieck          296 38:12  233 1:28:31 16.9  261 2:06:42  153 53:48  8:40 Garibaldi Highla,
  229 154/188 M 28/32 M4549  3:00:40   47 Andrew Brink            260 35:56  181 1:22:43 18.0  219 1:58:38  250 62:02  9:59 Surrey,BC       
  230 155/188 M 29/32 M4549  3:00:48  363 Stephen Whitworth       291 38:00  221 1:26:17 17.3  250 2:04:17  195 56:32  9:06 North Vancouver,
  231  76/145 F  6/20 F4044  3:00:50  242 Sarah Patterson          78 27:10  251 1:30:02 16.6  209 1:57:11  263 63:39 10:15 Vancouver,BC    
  232  77/145 F  8/11 F4549  3:00:59  367 Wendy Williams          256 35:32  249 1:29:57 16.6  254 2:05:28  177 55:31  8:56 Delta,BC        
  233 156/188 M 17/20 M2529  3:01:29   69 Hadleigh Crysell        214 33:13  281 1:35:08 15.7  269 2:08:21  142 53:08  8:34 Vancouver,BC    
  234  78/145 F 15/26 F3539  3:02:19  338 Sneeta Takhar           280 37:02  219 1:26:09 17.3  242 2:03:11  227 59:09  9:32 Powell River,BC 
  235 157/188 M 12/15 M5054  3:03:28   63 David Clarke             24 24:28  258 1:31:07 16.4  189 1:55:35  280 67:54 10:56 Vancouver,BC    
  236 158/188 M 20/20 M4044  3:03:43  171 Lawrence Klein          279 36:58  215 1:25:32 17.4  236 2:02:29  247 61:15  9:52 Squamish,BC     
  237  79/145 F  7/20 F4044  3:04:01  208 Lindsay McDonald        186 32:00  240 1:29:12 16.7  231 2:01:11  255 62:50 10:07 Vancouver,BC    
  238 159/188 M 30/32 M4549  3:04:05  218 Tom Merenyi             104 28:35  235 1:28:49 16.8  210 1:57:23  275 66:42 10:45 North Vancouver,
  239  80/145 F 16/25 F2529  3:04:25  136 Nicole Harrison          41 25:30  242 1:29:19 16.7  181 1:54:49  288 69:36 11:13 Burnaby,BC      
  240  81/145 F  6/14 F5054  3:04:29  206 Janet McCormack         196 32:32  241 1:29:17 16.7  234 2:01:49  252 62:41 10:06 North Vancouver,
  241 160/188 M  2/3  M6569  3:04:36  257 Rintje Raap             285 37:28  230 1:28:02 16.9  255 2:05:30  224 59:07  9:31 Victoria,BC     
  242  82/145 F  7/14 F5054  3:04:41  246 Patty Phillips          222 33:38  291 1:36:33 15.4  279 2:10:11  163 54:31  8:47 North Vancouver,
  243 161/188 M 21/30 M3034  3:04:48   53 Andrew Campbell          28 24:41  260 1:31:32 16.3  197 1:56:13  285 68:36 11:03 Whistler,BC     
  244  83/145 F  8/14 F5054  3:05:06  269 Lynn Robertson          187 32:02  246 1:29:44 16.6  233 2:01:45  259 63:21 10:12 Surrey,BC       
  245 162/188 M 13/15 M5054  3:05:17   24 Nigel Barrett           238 34:29  237 1:29:02 16.8  247 2:03:30  249 61:47  9:57 Surrey,BC       
  246  84/145 F 17/25 F2529  3:06:08    9 Pamela Arstikaitis      234 34:05  301 1:38:19 15.2  285 2:12:24  152 53:45  8:39 Vancouver,BC    
  247 163/188 M 22/30 M3034  3:06:17  147 Nick Holyome            212 33:12  174 1:22:09 18.2  187 1:55:20  292 70:57 11:26 Vancouver,BC    
  248  85/145 F 16/26 F3539  3:06:21  253 Natalie Prichard        242 34:43  267 1:33:02 16.0  267 2:07:45  217 58:37  9:26 Vancouver,BC    
  249  86/145 F 21/33 F3034  3:06:41  289 Carey Schaefer          273 36:43  236 1:28:51 16.8  256 2:05:34  245 61:07  9:51 Vancouver,BC    
  250  87/145 F  9/14 F5054  3:06:53  369 Gail Wilson             195 32:31  271 1:33:31 15.9  257 2:06:01  242 60:52  9:48 Langley,BC      
  251  88/145 F 22/33 F3034  3:07:00  249 Richard Pogson          317 41:04  218 1:25:53 17.4  262 2:06:57  236 60:04  9:40 Pemberton,BC    
  252 164/188 M 23/30 M3034  3:07:36   17 Richard Bailey           94 27:58  232 1:28:18 16.9  200 1:56:16  294 71:20 11:29 Saanichton,BC   
  253 165/188 M 36/42 M3539  3:07:41   52 Jason Camp              265 36:32  211 1:25:19 17.5  235 2:01:51  270 65:51 10:36 Vancouver,BC    
  254  89/145 F  8/20 F4044  3:07:59  347 Sarah Tobun             298 38:13  275 1:33:55 15.9  284 2:12:07  185 55:52  9:00 Burnaby,BC      
  255  90/145 F 23/33 F3034  3:08:41  354 Linda Waithman          119 29:16  282 1:35:31 15.6  252 2:04:46  265 63:55 10:18 Vancouver,BC    
  256  91/145 F 24/33 F3034  3:09:00   60 Janet Christie           97 28:11  277 1:34:19 15.8  237 2:02:29  273 66:31 10:43 Vancouver,BC    
  257  92/145 F 18/25 F2529  3:09:21  195 Carrie Malysh           228 33:48  280 1:35:01 15.7  272 2:08:49  240 60:32  9:45 Whistler,BC     
  258  93/145 F 19/25 F2529  3:09:23  131 Lisa Hall               243 34:46  262 1:31:51 16.2  260 2:06:37  253 62:46 10:07 Burnaby,BC      
  259  94/145 F 25/33 F3034  3:09:23  282 Lara Russell            224 33:43  279 1:34:29 15.8  268 2:08:11  246 61:13  9:51 Vancouver,BC    
  260 166/188 M 18/20 M2529  3:09:26   48 Scott Bumpus            300 38:21  284 1:35:35 15.6  292 2:13:56  178 55:31  8:57 Sidney,BC       
  261  95/145 F 26/33 F3034  3:09:33  300 Mikel Segal             308 39:36  287 1:35:58 15.5  299 2:15:34  157 54:00  8:42 Vancouver,BC    
  262  96/145 F 17/26 F3539  3:11:12  140 Holly Hendrigan         266 36:32  224 1:26:25 17.3  238 2:02:56  282 68:16 11:00 Vancouver,BC    
  263  97/145 F 18/26 F3539  3:11:52  244 Michelle Payette        111 28:54  317 1:44:24 14.3  288 2:13:17  216 58:35  9:26 Whistler,BC     
  264 167/188 M 31/32 M4549  3:12:05   29 Jim Beguin              281 37:14  254 1:30:11 16.5  264 2:07:25  267 64:41 10:25 New Westminster,
  265  98/145 F  7/10 F2024  3:12:48   32 Erin Berring            223 33:41  264 1:32:45 16.1  259 2:06:25  272 66:23 10:41 Coquitlam,BC    
  266 168/188 M 37/42 M3539  3:13:12   73 Jason Cyr               321 42:08  231 1:28:17 16.9  280 2:10:24  254 62:48 10:07 Lions Bay,BC    
  267  99/145 F 19/26 F3539  3:13:13  250 Isabelle Poirier        311 39:52  270 1:33:27 16.0  289 2:13:19  234 59:55  9:39 Vancouver,BC    
  268 169/188 M 24/30 M3034  3:13:26  155 Jake Jackson            314 40:11  244 1:29:30 16.7  275 2:09:41  264 63:46 10:16 Squamish,BC     
  269 100/145 F  9/20 F4044  3:13:26  118 Tannis Giesinger        277 36:51  268 1:33:12 16.0  277 2:10:02  261 63:25 10:13 Vancouver,BC    
  270 101/145 F 20/25 F2529  3:13:46  362 Michelle Whiting        287 37:37  212 1:25:23 17.5  239 2:02:59  291 70:47 11:24 Vancouver,BC    
  271 102/145 F  1/1  F6569  3:14:12  236 Mae Palm                268 36:34  296 1:37:11 15.3  291 2:13:45  239 60:28  9:44 Squamish,BC     
  272 103/145 F 27/33 F3034  3:14:55  185 Khristine Lonzon        232 33:56  294 1:36:57 15.4  282 2:10:52  266 64:03 10:19 Vancouver,BC    
  273 104/145 F 10/20 F4044  3:15:18  135 Ingrid Harrison         313 39:57  299 1:37:38 15.3  307 2:17:35  209 57:43  9:18 Surrey,BC       
  274 105/145 F 28/33 F3034  3:15:24   25 Michelle Barsalou       146 30:25  266 1:32:55 16.1  244 2:03:20  300 72:05 11:36 Surrey,BC       
  275 170/188 M 32/32 M4549  3:16:36   61 Jon Clark               325 43:09  298 1:37:29 15.3  314 2:20:38  188 55:59  9:01 Calgary,AB      
  276 171/188 M  6/6  M5559  3:16:55  319 Paris Speers            269 36:35  272 1:33:36 15.9  278 2:10:10  276 66:45 10:45 Delta,BC        
  277 106/145 F  8/10 F2024  3:17:01  150 Kathleen Huber          194 32:29  319 1:44:42 14.2  304 2:17:11  233 59:51  9:38 North Vancouver,
  278 107/145 F 11/20 F4044  3:17:29  175 Yayoi Lamb              267 36:33  309 1:41:14 14.7  310 2:17:46  232 59:43  9:37 Delta,BC        
  279 172/188 M 25/30 M3034  3:18:14  316 Jacob Sol               221 33:31  265 1:32:45 16.1  258 2:06:16  299 71:59 11:35 Port Coquitlam,B
  280 173/188 M 38/42 M3539  3:18:16  110 Larry Fradette          307 39:21  283 1:35:31 15.6  296 2:14:52  260 63:24 10:13 Surrey,BC       
  281 108/145 F 12/20 F4044  3:18:16  328 Carrie Stefanson        259 35:46  273 1:33:41 15.9  273 2:09:26  286 68:50 11:05 Port Moody,BC   
  282 109/145 F 20/26 F3539  3:18:54  325 Cindy Stahl             226 33:44  274 1:33:49 15.9  265 2:07:32  295 71:23 11:30 Powell River,BC 
  283 110/145 F 29/33 F3034  3:20:55   98 Tanja Epners            172 31:20  285 1:35:52 15.6  263 2:07:11  305 73:44 11:52 Vancouver,BC    
  284 111/145 F 13/20 F4044  3:21:03  111 Janice Fraser           329 45:21  252 1:30:06 16.6  298 2:15:27  269 65:37 10:34 Whistler,BC     
  285 112/145 F 30/33 F3034  3:21:23  294 Brie Schulz             206 33:03  292 1:36:56 15.4  276 2:09:58  298 71:25 11:30 Garibaldi Highla,
  286 113/145 F  9/11 F4549  3:21:42  321 Liz Spence              147 30:27  297 1:37:11 15.3  266 2:07:38  306 74:05 11:56 North Vancouver,
  287 114/145 F 14/20 F4044  3:21:50  139 Susanne Helm            249 35:12  300 1:38:10 15.2  290 2:13:22  284 68:29 11:02 North Vancouver,
  288 115/145 F 15/20 F4044  3:22:19  332 Christine Stufano       297 38:12  286 1:35:52 15.6  295 2:14:04  283 68:16 11:00 Pemberton,BC    
  289 116/145 F  3/3  F5559  3:23:26  307 Heather Sidsworth       189 32:12  316 1:44:12 14.3  301 2:16:24  278 67:02 10:48 Squamish,BC     
  290 174/188 M 39/42 M3539  3:23:52   38 Rob Bloye               304 39:00  243 1:29:26 16.7  270 2:08:25  313 75:27 12:09 North Vancouver,
  291 175/188 M 40/42 M3539  3:24:38  293 Tony Scholz             290 37:54  305 1:39:49 14.9  308 2:17:42  277 66:56 10:47 Ladner,BC       
  292 117/145 F 21/26 F3539  3:24:56  179 Erin Lee                182 31:57  306 1:40:51 14.8  287 2:12:48  301 72:09 11:37 Richmond,BC     
  293 176/188 M 14/15 M5054  3:25:09  264 Garth Riess             327 44:01  324 1:49:18 13.6  326 2:33:19  131 51:51  8:21 Pemberton,BC    
  294 177/188 M 19/20 M2529  3:25:22  230 Art Niewiero            326 43:48  253 1:30:11 16.5  293 2:13:58  297 71:25 11:30 Coquitlam,BC    
  295 178/188 M 26/30 M3034  3:25:26  295 Malcolm Schulz          163 30:56  312 1:43:07 14.5  294 2:14:03  296 71:24 11:30 Garibaldi Highla,
  296 179/188 M  3/3  M6569  3:25:35   75 Rob Daniel              330 46:18  238 1:29:04 16.7  297 2:15:22  290 70:14 11:19 Vancouver,BC    
  297 180/188 M  5/5  M6064  3:26:04  299 Gord Seeley             247 35:04  288 1:36:21 15.5  283 2:11:25  309 74:39 12:01 Cloverdale,BC   
  298 118/145 F 22/26 F3539  3:26:19  153 Vanessa Isnardy         318 41:06  245 1:29:42 16.6  281 2:10:47  314 75:33 12:10 Garibaldi Highla,
  299 119/145 F  9/10 F2024  3:26:39  261 Janine Regehr           275 36:46  308 1:41:01 14.8  309 2:17:46  287 68:53 11:06 Langley,BC      
  300 120/145 F 16/20 F4044  3:26:52  359 Lisa Webster            295 38:09  278 1:34:21 15.8  286 2:12:30  308 74:23 11:59 Vancouver,BC    
  301 121/145 F 17/20 F4044  3:26:59  256 Shelley Quinn           197 32:36  293 1:36:57 15.4  274 2:09:32  317 77:27 12:28 Whistler,BC     
  302 122/145 F 18/20 F4044  3:27:16  277 Camille Rozon           250 35:13  307 1:40:56 14.8  300 2:16:08  293 71:08 11:27 Vancouver,BC    
  303 123/145 F 19/20 F4044  3:28:27  337 Kimiko Taguchi          333 46:59  289 1:36:21 15.5  320 2:23:20  268 65:07 10:29 Whistler,BC     
  304 181/188 M 15/15 M5054  3:28:38  317 Don Somers              255 35:31  320 1:45:24 14.2  316 2:20:55  279 67:44 10:54 Comox,BC        
  305 124/145 F 10/14 F5054  3:28:51  238 Sue Parent              303 38:57  310 1:41:40 14.7  313 2:20:37  281 68:15 10:59 Surrey,BC       
  306 125/145 F 11/14 F5054  3:29:10   71 Gill Cullen             215 33:16  313 1:43:31 14.4  302 2:16:47  302 72:23 11:39 West Vancouver,B
  307 126/145 F 10/10 F2024  3:30:05   91 Catherine Dworak        181 31:50  326 1:51:42 13.4  321 2:23:32  274 66:34 10:43 Brackendale,BC  
  308 182/188 M 41/42 M3539  3:30:51  255 Ted Prutton             331 46:30  257 1:30:57 16.4  305 2:17:26  303 73:26 11:50 Surrey,BC       
  309 127/145 F  2/2  F6064  3:30:59   28 Mary Battell            306 39:09  311 1:41:40 14.7  315 2:20:49  289 70:11 11:18 Delta,BC        
  310 128/145 F 12/14 F5054  3:31:48  181 Brenda Lightfoot        205 33:01  318 1:44:27 14.3  306 2:17:27  307 74:21 11:58 Surrey,BC       
  311 129/145 F 13/14 F5054  3:32:23  106 Heather Forbes          301 38:44  322 1:47:28 13.9  322 2:26:12  271 66:12 10:40 Delta,BC        
  312 130/145 F 31/33 F3034  3:33:31   27 Jo-Ann Bateman          305 39:00  304 1:39:13 15.0  311 2:18:13  312 75:18 12:08 Vancouver,BC    
  313 131/145 F 23/26 F3539  3:34:16  124 Michelle Grainger       294 38:09  303 1:39:00 15.1  303 2:17:08  316 77:08 12:25 Surrey,BC       
  314 183/188 M 42/42 M3539  3:36:00  104 Rick Filipovic          332 46:52  276 1:34:07 15.8  317 2:20:59  311 75:01 12:05 North Vancouver,
  315 132/145 F 10/11 F4549  3:36:29  343 Dawne Tiller            235 34:06  323 1:47:40 13.9  318 2:21:46  310 74:44 12:02 Delta,BC        
  316 133/145 F 21/25 F2529  3:38:01  323 Nick Spires             319 41:21  302 1:38:40 15.1  312 2:20:01  318 78:01 12:34 North Vancouver,
  317 134/145 F 24/26 F3539  3:39:15  160 Jill Johnston           302 38:49  315 1:44:10 14.3  319 2:22:59  315 76:17 12:17 North Vancouver,
  318 135/145 F 22/25 F2529  3:41:47   93 Lisa Edwardson          284 37:25  325 1:50:39 13.5  325 2:28:04  304 73:43 11:52 North Vancouver,
  319 136/145 F 20/20 F4044  3:44:47   55 Kirsten Cannatella      323 42:31  314 1:44:00 14.3  323 2:26:30  319 78:18 12:36 Prince George,BC
  320 184/188 M 27/30 M3034  3:49:04  108 Chad Fox                316 40:42  321 1:45:50 14.1  324 2:26:31  322 82:33 13:18 Squamish,BC     
  321 137/145 F 23/25 F2529  3:58:36    8 Melissa Arsenault       310 39:40  327 1:59:51 12.4  327 2:39:31  320 79:06 12:44 Garibaldi Highla,
  322 138/145 F 32/33 F3034  4:12:34  227 Michelle Naida          274 36:44  329 2:14:39 11.1  329 2:51:22  321 81:12 13:05 Garibaldi Highla,
  323 139/145 F 25/26 F3539  4:13:00  270 Manuela Robertson       293 38:06  328 2:05:10 11.9  328 2:43:15  323 89:45 14:27 Surrey,BC       
  324 185/188 M 28/30 M3034           326 Sean Staniforth         158 30:50    1   58:22 25.6   10 1:29:12                  Vancouver,BC    
  325 140/145 F 26/26 F3539           333 Christine Suter          26 24:38   68 1:12:46 20.5   47 1:37:24                  Whistler,BC     
  326 141/145 F 24/25 F2529            39 Meredith Bodell         309 39:39   18 1:06:03 22.6  101 1:45:42                  Whistler,BC     
  327 142/145 F 11/11 F4549           129 Vicky Haberl            151 30:34  214 1:25:27 17.5  192 1:56:01                  Garibaldi Highla,
  328 143/145 F 25/25 F2529           245 Leah Perrier             60 26:16  269 1:33:23 16.0  226 1:59:38                  Vancouver,BC    
  329 144/145 F 33/33 F3034           374 Alison Woods            102 28:31  290 1:36:24 15.5  253 2:04:55                  Vancouver,BC    
  330 186/188 M 20/20 M2529            13 Stefan Avall            136 29:59                                                 Vancouver,BC    
  331 187/188 M 29/30 M3034           276 Sean Rousseau           282 37:16                                                 Lions Bay,BC    
  332 145/145 F 14/14 F5054            35 Grace Blok              320 41:58                                                 Whistler,BC     
  333 188/188 M 30/30 M3034           292 Chris Scholz            328 44:02                                                 Ladner,BC